Time;durP1;ratioP1;P1;durP2;ratioP2;P2;SDS_P1;SDS_P2;PMS_P1;PMS_P2;Temp;Humidity;BMP_temperature;BMP_pressure;BME280_temperature;BME280_humidity;BME280_pressure;Samples;Min_cycle;Max_cycle;Signal;HPM_P1;HPM_P2
2023/06/30 00:02:08;;;;;;;9.93;2.10;;;15.50;99.90;;;;;;4995883;28;20440;-66
2023/06/30 00:04:35;;;;;;;12.43;1.80;;;15.50;99.90;;;;;;4979302;28;20057;-66
2023/06/30 00:07:01;;;;;;;8.52;1.80;;;15.40;99.90;;;;;;4995730;28;20053;-66
2023/06/30 00:09:27;;;;;;;9.55;1.90;;;15.40;99.90;;;;;;5013299;28;20046;-65
2023/06/30 00:11:54;;;;;;;11.70;1.63;;;15.40;99.90;;;;;;4996018;28;20390;-67
2023/06/30 00:14:21;;;;;;;;;;;15.30;99.90;;;;;;4996240;28;20121;-66
2023/06/30 00:16:50;;;;;;;11.57;1.83;;;15.30;99.90;;;;;;4996481;28;20052;-66
2023/06/30 00:19:16;;;;;;;8.13;1.45;;;15.20;99.90;;;;;;4996005;28;20143;-65
2023/06/30 00:21:42;;;;;;;12.15;1.60;;;15.10;99.90;;;;;;5013030;28;20045;-70
2023/06/30 00:24:12;;;;;;;7.30;1.60;;;15.10;99.90;;;;;;4979717;28;20042;-66
2023/06/30 00:26:39;;;;;;;10.80;1.60;;;15.00;99.90;;;;;;4995962;28;20195;-66
2023/06/30 00:29:05;;;;;;;9.15;1.45;;;15.00;99.90;;;;;;5013175;28;20045;-65
2023/06/30 00:31:30;;;;;;;13.33;1.60;;;14.90;99.90;;;;;;4999174;28;20045;-65
2023/06/30 00:33:57;;;;;;;7.40;1.45;;;14.90;99.90;;;;;;5023501;28;20456;-65
2023/06/30 00:36:23;;;;;;;8.38;1.05;;;14.80;99.90;;;;;;5002533;28;20046;-65
2023/06/30 00:38:51;;;;;;;6.87;1.30;;;14.80;99.90;;;;;;5016598;28;20410;-65
2023/06/30 00:41:17;;;;;;;11.07;1.75;;;14.80;99.90;;;;;;5016550;28;20049;-64
2023/06/30 00:43:43;;;;;;;9.60;1.45;;;14.70;99.90;;;;;;4998984;28;20052;-65
2023/06/30 00:46:12;;;;;;;9.63;1.42;;;14.70;99.90;;;;;;5017132;28;20050;-66
2023/06/30 00:48:38;;;;;;;6.30;1.13;;;14.60;99.90;;;;;;5016823;28;20077;-66
2023/06/30 00:51:04;;;;;;;7.50;1.30;;;14.60;99.90;;;;;;4999338;28;20054;-66
2023/06/30 00:53:31;;;;;;;12.95;1.58;;;14.60;99.90;;;;;;4998883;28;20042;-66
2023/06/30 00:55:57;;;;;;;9.60;1.45;;;14.50;99.90;;;;;;5016027;28;20053;-66
2023/06/30 00:58:23;;;;;;;9.82;1.30;;;14.50;99.90;;;;;;4998337;28;20046;-66
2023/06/30 01:00:54;;;;;;;11.07;1.35;;;14.50;99.90;;;;;;4982202;28;20055;-67
2023/06/30 01:03:39;;;;;;;10.57;1.55;;;14.50;99.90;;;;;;5016256;28;20042;-66
2023/06/30 01:06:30;;;;;;;10.00;1.38;;;14.50;99.90;;;;;;5016390;28;20487;-66
2023/06/30 01:09:03;;;;;;;7.78;1.15;;;14.40;99.90;;;;;;4998589;28;20057;-66
2023/06/30 01:11:32;;;;;;;7.07;1.10;;;14.50;99.90;;;;;;5015778;28;20049;-67
2023/06/30 01:14:00;;;;;;;6.07;1.20;;;14.40;99.90;;;;;;5015564;28;20058;-66
2023/06/30 01:16:29;;;;;;;8.57;1.30;;;14.40;99.90;;;;;;5015929;28;20050;-66
2023/06/30 01:18:58;;;;;;;7.35;1.10;;;14.40;99.90;;;;;;5015364;28;20097;-66
2023/06/30 01:21:28;;;;;;;11.15;1.27;;;14.30;99.90;;;;;;5015515;28;20056;-66
2023/06/30 01:24:02;;;;;;;8.55;1.10;;;14.30;99.90;;;;;;5015821;28;20402;-65
2023/06/30 01:26:34;;;;;;;11.10;1.13;;;14.30;99.90;;;;;;4998453;28;20045;-65
2023/06/30 01:29:06;;;;;;;8.70;1.13;;;14.20;99.90;;;;;;5015330;28;20116;-65
2023/06/30 01:31:32;;;;;;;5.55;0.93;;;14.20;99.90;;;;;;4998690;28;20045;-65
2023/06/30 01:34:02;;;;;;;7.45;1.15;;;14.20;99.90;;;;;;4997838;28;20115;-65
2023/06/30 01:36:28;;;;;;;5.90;1.08;;;14.10;99.90;;;;;;5015236;28;20103;-65
2023/06/30 01:38:54;;;;;;;7.00;0.93;;;14.10;99.90;;;;;;5014883;28;20073;-65
2023/06/30 01:41:20;;;;;;;6.75;1.25;;;14.00;99.90;;;;;;5015318;28;20088;-64
2023/06/30 01:43:49;;;;;;;7.78;1.33;;;14.00;99.90;;;;;;4980549;28;20165;-65
2023/06/30 01:46:15;;;;;;;6.82;1.10;;;14.00;99.90;;;;;;5015573;28;20093;-65
2023/06/30 01:48:43;;;;;;;5.72;0.90;;;13.90;99.90;;;;;;4997548;28;20054;-65
2023/06/30 01:51:11;;;;;;;6.82;1.17;;;13.90;99.90;;;;;;4997558;28;20490;-64
2023/06/30 01:53:37;;;;;;;7.70;1.20;;;13.80;99.90;;;;;;5014904;28;20081;-65
2023/06/30 01:56:03;;;;;;;5.65;1.27;;;13.70;99.90;;;;;;5015702;28;20100;-65
2023/06/30 01:58:31;;;;;;;8.20;1.58;;;13.70;99.90;;;;;;5015400;28;20129;-65
2023/06/30 02:00:57;;;;;;;5.90;1.10;;;13.60;99.90;;;;;;5015330;28;20371;-66
2023/06/30 02:03:22;;;;;;;7.53;1.40;;;13.60;99.90;;;;;;5014507;28;20125;-65
2023/06/30 02:05:48;;;;;;;13.23;1.63;;;13.60;99.90;;;;;;5014835;28;20100;-65
2023/06/30 02:08:14;;;;;;;6.07;1.00;;;13.50;99.90;;;;;;5015408;28;20045;-65
2023/06/30 02:10:39;;;;;;;7.68;1.40;;;13.50;99.90;;;;;;4981596;28;20046;-65
2023/06/30 02:13:05;;;;;;;7.65;1.38;;;13.40;99.90;;;;;;5014214;28;20398;-65
2023/06/30 02:15:31;;;;;;;6.72;1.13;;;13.40;99.90;;;;;;5014828;28;20052;-65
2023/06/30 02:17:56;;;;;;;7.85;1.30;;;13.30;99.90;;;;;;5014554;28;20046;-65
2023/06/30 02:20:22;;;;;;;10.30;1.52;;;13.20;99.90;;;;;;5014412;28;20046;-65
2023/06/30 02:22:48;;;;;;;10.35;1.27;;;13.20;99.90;;;;;;5014430;28;20049;-65
2023/06/30 02:25:14;;;;;;;8.95;1.35;;;13.10;99.90;;;;;;4997169;28;20049;-65
2023/06/30 02:27:39;;;;;;;9.45;2.00;;;13.00;99.90;;;;;;5014203;28;20177;-65
2023/06/30 02:30:07;;;;;;;7.03;1.25;;;13.00;99.90;;;;;;4981043;28;20053;-65
2023/06/30 02:32:37;;;;;;;6.20;1.15;;;12.90;99.90;;;;;;4996961;28;20509;-65
2023/06/30 02:35:08;;;;;;;6.05;1.15;;;12.80;99.90;;;;;;4997659;28;20524;-65
2023/06/30 02:37:34;;;;;;;9.00;1.45;;;12.80;99.90;;;;;;5014579;28;20544;-65
2023/06/30 02:39:59;;;;;;;7.40;1.25;;;12.80;99.90;;;;;;4996638;28;20482;-65
2023/06/30 02:42:25;;;;;;;9.57;1.58;;;12.70;99.90;;;;;;4996711;28;20046;-66
2023/06/30 02:44:51;;;;;;;9.50;1.55;;;12.60;99.90;;;;;;4996610;28;20073;-65
2023/06/30 02:47:16;;;;;;;9.10;1.30;;;12.60;99.90;;;;;;4996666;28;20128;-65
2023/06/30 02:49:42;;;;;;;8.40;1.25;;;12.50;99.90;;;;;;5014630;28;20057;-65
2023/06/30 02:52:09;;;;;;;8.25;1.33;;;12.50;99.90;;;;;;5013922;28;20167;-65
2023/06/30 02:54:35;;;;;;;3.83;1.13;;;12.50;99.90;;;;;;5013509;28;20057;-65
2023/06/30 02:57:00;;;;;;;7.68;1.50;;;12.40;99.90;;;;;;4996435;28;20048;-65
2023/06/30 02:59:26;;;;;;;5.40;1.40;;;12.40;99.90;;;;;;5014140;28;20041;-65
2023/06/30 03:01:52;;;;;;;4.80;1.35;;;12.40;99.90;;;;;;5013924;28;20085;-65
2023/06/30 03:04:17;;;;;;;5.18;1.33;;;12.40;99.90;;;;;;5013435;28;20115;-65
2023/06/30 03:06:43;;;;;;;6.55;1.50;;;12.30;99.90;;;;;;5013829;28;20054;-65
2023/06/30 03:09:09;;;;;;;7.40;1.73;;;12.30;99.90;;;;;;4996851;28;20046;-65
2023/06/30 03:11:34;;;;;;;7.07;1.60;;;12.20;99.90;;;;;;5013848;28;20076;-65
2023/06/30 03:14:00;;;;;;;9.75;2.00;;;12.20;99.90;;;;;;4996064;28;20402;-66
2023/06/30 03:16:26;;;;;;;8.43;2.20;;;12.20;99.90;;;;;;4996429;28;20049;-65
2023/06/30 03:18:52;;;;;;;10.45;2.45;;;12.20;99.90;;;;;;4980466;28;20046;-65
2023/06/30 03:21:18;;;;;;;6.63;2.20;;;12.20;99.90;;;;;;5014040;28;20125;-66
2023/06/30 03:23:45;;;;;;;10.93;2.65;;;12.10;99.90;;;;;;4996835;28;20129;-64
2023/06/30 03:26:16;;;;;;;10.07;2.30;;;12.10;99.90;;;;;;5013467;28;20143;-66
2023/06/30 03:28:42;;;;;;;9.50;2.80;;;12.10;99.90;;;;;;5013581;28;20078;-65
2023/06/30 03:31:08;;;;;;;6.30;2.67;;;12.10;99.90;;;;;;5013445;28;20506;-65
2023/06/30 03:33:34;;;;;;;10.55;2.67;;;12.10;99.90;;;;;;5013381;28;20038;-65
2023/06/30 03:36:00;;;;;;;7.97;2.53;;;12.10;99.90;;;;;;5013497;28;20041;-65
2023/06/30 03:38:25;;;;;;;13.00;2.70;;;12.00;99.90;;;;;;5013443;28;20513;-65
2023/06/30 03:40:51;;;;;;;8.93;2.70;;;12.00;99.90;;;;;;5014227;28;20057;-65
2023/06/30 03:43:21;;;;;;;9.10;2.70;;;12.00;99.90;;;;;;5013670;28;20470;-65
2023/06/30 03:45:46;;;;;;;7.88;2.83;;;12.00;99.90;;;;;;4979551;28;20057;-65
2023/06/30 03:48:12;;;;;;;8.45;2.63;;;12.00;99.90;;;;;;4995941;28;20056;-65
2023/06/30 03:50:42;;;;;;;11.32;3.03;;;12.00;99.90;;;;;;5013925;28;20050;-65
2023/06/30 03:53:08;;;;;;;9.00;2.45;;;12.00;99.90;;;;;;5013920;28;20042;-64
2023/06/30 03:55:34;;;;;;;9.88;2.53;;;12.00;99.90;;;;;;4996023;28;20205;-65
2023/06/30 03:58:00;;;;;;;9.05;2.47;;;12.00;99.90;;;;;;5013392;28;20050;-65
2023/06/30 04:00:25;;;;;;;12.00;3.20;;;12.00;99.90;;;;;;4995761;28;20053;-65
2023/06/30 04:02:51;;;;;;;8.50;2.47;;;12.00;99.90;;;;;;4995871;28;20180;-65
2023/06/30 04:05:17;;;;;;;8.45;2.92;;;12.00;99.90;;;;;;4979364;28;20054;-66
2023/06/30 04:07:43;;;;;;;7.95;2.40;;;12.00;99.90;;;;;;4998234;28;20045;-66
2023/06/30 04:10:09;;;;;;;11.88;3.00;;;12.00;99.90;;;;;;4999749;28;20045;-66
2023/06/30 04:12:34;;;;;;;10.43;2.75;;;12.00;99.90;;;;;;4999569;28;20050;-66
2023/06/30 04:15:00;;;;;;;11.88;2.92;;;12.00;99.90;;;;;;5017118;28;20045;-66
2023/06/30 04:17:26;;;;;;;12.15;2.97;;;11.90;99.90;;;;;;5017344;28;20502;-66
2023/06/30 04:19:51;;;;;;;8.70;2.80;;;11.90;99.90;;;;;;4983183;28;20057;-66
2023/06/30 04:22:17;;;;;;;7.53;2.70;;;11.90;99.90;;;;;;5016606;28;20478;-66
2023/06/30 04:24:43;;;;;;;13.82;3.10;;;11.90;99.90;;;;;;5017226;28;20092;-66
2023/06/30 04:27:08;;;;;;;7.95;2.70;;;11.90;99.90;;;;;;5016659;28;20521;-66
2023/06/30 04:29:34;;;;;;;11.18;2.95;;;11.90;99.90;;;;;;4998732;28;20117;-66
2023/06/30 04:32:00;;;;;;;10.95;2.92;;;12.00;99.90;;;;;;5016622;28;20045;-66
2023/06/30 04:34:25;;;;;;;7.35;2.63;;;12.00;99.90;;;;;;5016399;28;20077;-66
2023/06/30 04:36:51;;;;;;;10.13;2.42;;;12.00;99.90;;;;;;4983296;28;20046;-66
2023/06/30 04:39:17;;;;;;;11.80;2.58;;;12.10;99.90;;;;;;5016247;28;20390;-67
2023/06/30 04:41:42;;;;;;;8.75;2.58;;;12.10;99.90;;;;;;5016826;28;20050;-65
2023/06/30 04:44:08;;;;;;;9.07;2.47;;;12.10;99.90;;;;;;4999601;28;20100;-65
2023/06/30 04:46:34;;;;;;;7.15;2.50;;;12.20;99.90;;;;;;4998696;28;20192;-66
2023/06/30 04:49:00;;;;;;;8.52;2.92;;;12.20;99.90;;;;;;5016198;28;20050;-65
2023/06/30 04:51:26;;;;;;;6.68;2.20;;;12.20;99.90;;;;;;5016086;28;20131;-66
2023/06/30 04:53:53;;;;;;;13.88;2.75;;;12.30;99.90;;;;;;4998481;28;20101;-66
2023/06/30 04:56:19;;;;;;;6.57;2.50;;;12.40;99.90;;;;;;4998537;28;20490;-70
2023/06/30 04:58:45;;;;;;;8.45;2.33;;;12.40;99.90;;;;;;4982509;28;20141;-65
2023/06/30 05:01:11;;;;;;;10.43;2.45;;;12.50;99.90;;;;;;4998393;28;20061;-65
2023/06/30 05:03:36;;;;;;;11.57;2.65;;;12.60;99.90;;;;;;4998316;28;20129;-64
2023/06/30 05:06:02;;;;;;;8.05;2.42;;;12.70;99.90;;;;;;5016438;28;20084;-65
2023/06/30 05:08:28;;;;;;;9.70;2.65;;;12.70;99.90;;;;;;5015752;28;20446;-65
2023/06/30 05:10:54;;;;;;;7.05;2.15;;;12.80;99.90;;;;;;5015819;28;20042;-66
2023/06/30 05:13:19;;;;;;;8.98;2.40;;;12.80;99.90;;;;;;4981792;28;20474;-66
2023/06/30 05:15:45;;;;;;;8.25;2.55;;;12.90;99.90;;;;;;4982027;28;20050;-66
2023/06/30 05:18:11;;;;;;;8.93;2.75;;;12.90;99.90;;;;;;5014400;28;20049;-66
2023/06/30 05:20:39;;;;;;;7.97;2.45;;;13.00;99.90;;;;;;5015395;28;20045;-66
2023/06/30 05:23:04;;;;;;;8.45;2.50;;;13.10;99.90;;;;;;5015234;28;20557;-66
2023/06/30 05:25:30;;;;;;;9.48;2.60;;;13.20;99.90;;;;;;5015408;28;20092;-66
2023/06/30 05:27:56;;;;;;;6.57;2.35;;;13.30;99.90;;;;;;4997898;28;20050;-66
2023/06/30 05:30:21;;;;;;;10.38;2.15;;;13.30;99.90;;;;;;4981690;28;20045;-66
2023/06/30 05:32:47;;;;;;;10.45;2.58;;;13.50;99.90;;;;;;5014942;28;20049;-66
2023/06/30 05:35:13;;;;;;;11.73;2.28;;;13.50;99.90;;;;;;4997831;28;20100;-65
2023/06/30 05:37:39;;;;;;;7.35;2.33;;;13.70;99.90;;;;;;4997847;28;20049;-66
2023/06/30 05:40:05;;;;;;;8.38;2.40;;;13.70;99.90;;;;;;4997766;28;20111;-66
2023/06/30 05:42:31;;;;;;;6.20;2.17;;;13.80;99.90;;;;;;5015344;28;20081;-66
2023/06/30 05:44:56;;;;;;;7.30;1.88;;;13.90;99.90;;;;;;5015298;28;20077;-66
2023/06/30 05:47:22;;;;;;;9.50;2.22;;;14.00;99.90;;;;;;5016349;28;20053;-65
2023/06/30 05:49:48;;;;;;;7.97;2.45;;;14.10;99.90;;;;;;4998116;28;20124;-66
2023/06/30 05:52:14;;;;;;;10.40;2.00;;;14.20;99.90;;;;;;4997631;28;20132;-66
2023/06/30 05:54:40;;;;;;;8.40;1.90;;;14.30;99.90;;;;;;5015000;28;20081;-66
2023/06/30 05:57:06;;;;;;;7.78;1.65;;;14.40;99.90;;;;;;4998320;28;20046;-66
2023/06/30 05:59:32;;;;;;;10.93;2.20;;;14.50;99.90;;;;;;4981451;28;20375;-65
2023/06/30 06:01:58;;;;;;;7.82;1.80;;;14.70;99.90;;;;;;5014849;28;20128;-65
2023/06/30 06:04:23;;;;;;;10.73;1.67;;;14.80;99.90;;;;;;5014469;28;20072;-65
2023/06/30 06:06:49;;;;;;;6.47;1.40;;;14.90;99.90;;;;;;5014581;28;20125;-66
2023/06/30 06:09:15;;;;;;;6.72;1.20;;;15.10;99.90;;;;;;4997139;28;20457;-65
2023/06/30 06:11:41;;;;;;;6.50;1.15;;;15.30;99.90;;;;;;5014753;28;20115;-65
2023/06/30 06:14:06;;;;;;;9.52;1.30;;;15.40;99.90;;;;;;5014463;28;20045;-65
2023/06/30 06:16:32;;;;;;;8.10;1.00;;;15.60;99.90;;;;;;4997091;28;20124;-66
2023/06/30 06:18:58;;;;;;;6.80;1.52;;;15.70;99.90;;;;;;4997755;28;20038;-66
2023/06/30 06:21:27;;;;;;;5.63;0.75;;;15.80;99.90;;;;;;5014120;28;20053;-65
2023/06/30 06:23:53;;;;;;;10.75;1.30;;;15.90;99.90;;;;;;4996819;28;20042;-64
2023/06/30 06:26:19;;;;;;;9.50;1.00;;;15.90;99.90;;;;;;5014290;28;20160;-65
2023/06/30 06:28:45;;;;;;;7.85;0.80;;;16.10;99.90;;;;;;5014145;28;20133;-66
2023/06/30 06:31:10;;;;;;;7.35;0.93;;;16.20;99.90;;;;;;4996961;28;20050;-64
2023/06/30 06:33:36;;;;;;;7.47;1.05;;;16.30;99.90;;;;;;5014017;28;20046;-65
2023/06/30 06:36:02;;;;;;;5.65;0.80;;;16.40;99.90;;;;;;4997613;28;20056;-65
2023/06/30 06:38:28;;;;;;;7.97;0.90;;;16.50;99.90;;;;;;4996658;28;20045;-65
2023/06/30 06:40:53;;;;;;;5.85;0.60;;;16.60;99.90;;;;;;4996615;28;20096;-66
2023/06/30 06:43:24;;;;;;;7.13;0.95;;;16.70;99.90;;;;;;5013793;28;20128;-65
2023/06/30 06:45:49;;;;;;;5.25;0.70;;;16.80;99.90;;;;;;5014020;28;20049;-65
2023/06/30 06:48:22;;;;;;;4.70;0.70;;;16.90;99.90;;;;;;5014014;28;20041;-66
2023/06/30 06:50:52;;;;;;;9.63;0.93;;;17.00;99.90;;;;;;5013956;28;20378;-66
2023/06/30 06:53:20;;;;;;;6.28;0.70;;;17.00;99.90;;;;;;4996950;28;20116;-66
2023/06/30 06:55:48;;;;;;;4.07;0.60;;;17.10;99.90;;;;;;5013666;28;20050;-65
2023/06/30 06:58:14;;;;;;;6.32;0.93;;;17.30;99.90;;;;;;5014105;28;20053;-67
2023/06/30 07:00:40;;;;;;;5.30;0.60;;;17.30;99.90;;;;;;5013815;28;20041;-66
2023/06/30 07:03:05;;;;;;;2.50;0.60;;;17.50;99.90;;;;;;4996485;28;20092;-65
2023/06/30 07:05:31;;;;;;;6.63;0.70;;;17.70;99.90;;;;;;4995692;28;20482;-66
2023/06/30 07:07:57;;;;;;;5.67;0.60;;;17.70;99.90;;;;;;5013643;28;20111;-65
2023/06/30 07:10:23;;;;;;;7.38;0.82;;;17.70;99.90;;;;;;4980095;28;20050;-65
2023/06/30 07:12:49;;;;;;;10.70;0.87;;;17.70;99.90;;;;;;5013549;28;20050;-65
2023/06/30 07:15:15;;;;;;;5.13;0.50;;;17.60;99.90;;;;;;4996026;28;20107;-65
2023/06/30 07:17:41;;;;;;;7.00;0.60;;;17.50;99.90;;;;;;4980814;28;20466;-66
2023/06/30 07:20:07;;;;;;;3.37;0.40;;;17.50;99.90;;;;;;4996541;28;20049;-66
2023/06/30 07:22:33;;;;;;;4.13;0.60;;;17.50;99.90;;;;;;4996076;28;20056;-65
2023/06/30 07:25:02;;;;;;;5.03;0.90;;;17.40;99.90;;;;;;5013328;28;20057;-66
2023/06/30 07:27:28;;;;;;;7.40;0.60;;;17.50;99.90;;;;;;4996192;28;20128;-66
2023/06/30 07:29:53;;;;;;;11.37;0.60;;;17.50;99.90;;;;;;4996139;28;20133;-65
2023/06/30 07:32:19;;;;;;;13.67;1.00;;;17.50;99.90;;;;;;5013408;28;20553;-65
2023/06/30 07:34:45;;;;;;;7.00;0.80;;;17.60;99.90;;;;;;5013317;28;20041;-65
2023/06/30 07:37:10;;;;;;;6.97;0.50;;;17.60;99.90;;;;;;5014031;28;20100;-66
2023/06/30 07:39:36;;;;;;;4.40;0.60;;;17.60;99.90;;;;;;5013997;28;20385;-65
2023/06/30 07:42:02;;;;;;;3.47;0.57;;;17.70;99.90;;;;;;4998117;28;20045;-65
2023/06/30 07:44:28;;;;;;;4.30;0.63;;;17.80;99.90;;;;;;5017344;28;20394;-65
2023/06/30 07:46:53;;;;;;;4.07;0.73;;;18.00;99.90;;;;;;5000004;28;20064;-64
2023/06/30 07:49:21;;;;;;;2.63;0.60;;;18.10;99.90;;;;;;5017668;28;20104;-65
2023/06/30 07:51:47;;;;;;;6.00;0.60;;;18.20;99.90;;;;;;5000315;28;20050;-65
2023/06/30 07:54:14;;;;;;;4.90;0.67;;;18.30;99.90;;;;;;4999587;28;20042;-66
2023/06/30 07:56:40;;;;;;;;;;;18.40;99.90;;;;;;5017649;28;20053;-65
2023/06/30 07:59:05;;;;;;;4.70;0.80;;;18.50;99.90;;;;;;5017160;28;19928;-65
2023/06/30 08:01:31;;;;;;;8.77;0.85;;;18.50;99.90;;;;;;4999815;28;20469;-66
2023/06/30 08:03:57;;;;;;;4.47;0.70;;;18.70;99.90;;;;;;4999264;28;20390;-66
2023/06/30 08:06:23;;;;;;;3.23;0.60;;;18.80;99.90;;;;;;5017275;28;20108;-66
2023/06/30 08:08:48;;;;;;;5.53;0.50;;;18.80;99.90;;;;;;4984194;28;20052;-65
2023/06/30 08:11:14;;;;;;;4.10;0.53;;;18.90;99.90;;;;;;4983546;28;20198;-65
2023/06/30 08:13:40;;;;;;;4.00;0.60;;;18.90;99.90;;;;;;4984033;28;20125;-66
2023/06/30 08:16:05;;;;;;;3.43;0.60;;;18.50;99.90;;;;;;5017263;28;20045;-66
2023/06/30 08:18:31;;;;;;;3.63;0.40;;;18.50;99.90;;;;;;4983935;28;20050;-67
2023/06/30 08:20:57;;;;;;;4.23;0.80;;;18.70;99.90;;;;;;5016703;28;20397;-64
2023/06/30 08:23:24;;;;;;;4.40;0.50;;;18.80;99.90;;;;;;5016629;28;20050;-66
2023/06/30 08:25:51;;;;;;;;;;;19.00;99.90;;;;;;4999598;28;20083;-66
2023/06/30 08:28:16;;;;;;;;;;;19.10;99.90;;;;;;5016906;28;19925;-64
2023/06/30 08:30:42;;;;;;;2.53;0.37;;;18.90;99.90;;;;;;5016496;28;20329;-64
2023/06/30 08:33:08;;;;;;;3.53;0.47;;;18.90;99.90;;;;;;5016439;28;20096;-65
2023/06/30 08:35:33;;;;;;;4.83;0.40;;;19.10;99.90;;;;;;4982993;28;20184;-65
2023/06/30 08:37:59;;;;;;;1.70;0.37;;;19.20;99.90;;;;;;4999088;28;20393;-65
2023/06/30 08:40:26;;;;;;;3.50;0.50;;;19.40;99.90;;;;;;4998989;28;20089;-66
2023/06/30 08:42:53;;;;;;;;;;;19.30;99.90;;;;;;4999118;28;20046;-66
2023/06/30 08:45:26;;;;;;;2.63;0.68;;;19.40;99.90;;;;;;5016297;28;19921;-65
2023/06/30 08:47:52;;;;;;;3.78;0.50;;;19.40;99.90;;;;;;5016229;28;20122;-66
2023/06/30 08:50:20;;;;;;;4.13;0.60;;;;;;;;;;4998960;28;20058;-65
2023/06/30 08:52:47;;;;;;;3.08;0.60;;;;;;;;;;4998487;28;20056;-66
2023/06/30 08:55:13;;;;;;;;;;;;;;;;;;4998555;28;20076;-66
2023/06/30 08:57:41;;;;;;;5.22;0.60;;;;;;;;;;4998683;28;19925;-65
2023/06/30 09:00:07;;;;;;;3.63;0.63;;;;;;;;;;5015997;28;20057;-66
2023/06/30 09:02:34;;;;;;;5.47;0.60;;;;;;;;;;5015947;28;20050;-66
2023/06/30 09:05:00;;;;;;;2.70;0.40;;;;;;;;;;4981898;28;20395;-67
2023/06/30 09:07:28;;;;;;;3.20;0.50;;;;;;;;;;5015886;28;20061;-66
2023/06/30 09:09:57;;;;;;;5.05;0.57;;;;;;;;;;5015659;28;20046;-66
2023/06/30 09:12:23;;;;;;;4.90;0.70;;;;;;;;;;4998472;28;20054;-66
2023/06/30 09:14:51;;;;;;;3.53;0.60;;;;;;;;;;4998249;28;20100;-65
2023/06/30 09:17:18;;;;;;;4.93;0.60;;;;;;;;;;4998801;28;20169;-66
2023/06/30 09:19:45;;;;;;;8.15;0.73;;;;;;;;;;4998166;28;20124;-66
2023/06/30 09:22:11;;;;;;;;;;;;;;;;;;5015946;28;20065;-66
2023/06/30 09:24:37;;;;;;;6.65;0.60;;;;;;;;;;5015557;28;19921;-67
2023/06/30 09:27:03;;;;;;;5.72;0.60;;;;;;;;;;5015483;28;20042;-66
2023/06/30 09:29:35;;;;;;;5.50;0.52;;;;;;;;;;4981765;28;20050;-66
2023/06/30 09:32:02;;;;;;;3.83;0.57;;;;;;;;;;5015374;28;20046;-66
2023/06/30 09:34:28;;;;;;;2.78;0.50;;;;;;;;;;4997760;28;20085;-66
2023/06/30 09:36:55;;;;;;;2.42;0.50;;;;;;;;;;5015832;28;20169;-66
2023/06/30 09:39:21;;;;;;;;;;;;;;;;;;5015249;28;20506;-66
2023/06/30 09:41:48;;;;;;;5.72;1.02;;;;;;;;;;5015668;28;19983;-67
2023/06/30 09:44:14;;;;;;;;;;;;;;;;;;5016229;28;20077;-66
2023/06/30 09:46:50;;;;;;;2.92;0.40;;;;;;;;;;4981235;28;20428;-66
2023/06/30 09:49:43;;;;;;;4.75;0.50;;;;;;;;;;5015067;28;20093;-65
2023/06/30 09:52:09;;;;;;;4.47;0.43;;;;;;;;;;5012151;28;20046;-66
2023/06/30 09:54:36;;;;;;;3.20;0.50;;;;;;;;;;5014852;28;20136;-66
2023/06/30 09:57:05;;;;;;;5.63;0.60;;;;;;;;;;5014688;28;20050;-66
2023/06/30 09:59:32;;;;;;;4.50;0.68;;;;;;;;;;5015468;28;20359;-66
2023/06/30 10:01:59;;;;;;;4.70;0.70;;;;;;;;;;5014635;28;20136;-65
2023/06/30 10:04:27;;;;;;;3.17;0.45;;;;;;;;;;4996543;28;20049;-67
2023/06/30 10:06:54;;;;;;;7.57;0.85;;;;;;;;;;5014212;28;20057;-67
2023/06/30 10:09:20;;;;;;;;;;;;;;;;;;5015785;28;20180;-67
2023/06/30 10:11:49;;;;;;;2.58;0.40;;;;;;;;;;4998017;28;20302;-66
2023/06/30 10:14:16;;;;;;;3.55;0.40;;;;;;;;;;4981614;28;20149;-67
2023/06/30 10:16:43;;;;;;;3.63;0.60;;;;;;;;;;4981313;28;20109;-66
2023/06/30 10:19:09;;;;;;;2.20;0.50;;;;;;;;;;5014344;28;20050;-67
2023/06/30 10:21:35;;;;;;;4.20;0.60;;;;;;;;;;5014374;28;20047;-67
2023/06/30 10:24:03;;;;;;;5.68;0.55;;;;;;;;;;5014339;28;20048;-67
2023/06/30 10:26:32;;;;;;;2.65;0.47;;;;;;;;;;5014389;28;20206;-70
2023/06/30 10:28:58;;;;;;;4.35;0.70;;;;;;;;;;5014265;28;20050;-68
2023/06/30 10:31:25;;;;;;;4.80;0.70;;;;;;;;;;5014314;28;20050;-67
2023/06/30 10:33:52;;;;;;;4.72;0.60;;;;;;;;;;5014218;28;20141;-66
2023/06/30 10:36:18;;;;;;;3.72;0.50;;;;;;;;;;4996852;28;20068;-67
2023/06/30 10:38:46;;;;;;;4.70;0.80;;;;;;;;;;5014225;28;20138;-66
2023/06/30 10:41:13;;;;;;;5.10;0.60;;;;;;;;;;4996667;28;20501;-66
2023/06/30 10:43:58;;;;;;;4.43;0.60;;;;;;;;;;5014110;28;20050;-67
2023/06/30 10:46:40;;;;;;;2.53;0.70;;;;;;;;;;5013941;28;20053;-67
2023/06/30 10:49:06;;;;;;;6.47;0.65;;;;;;;;;;4997243;28;20500;-66
2023/06/30 10:51:36;;;;;;;4.55;0.60;;;;;;;;;;5014057;28;20046;-66
2023/06/30 10:54:02;;;;;;;3.13;0.60;;;;;;;;;;4980276;28;20053;-66
2023/06/30 10:56:28;;;;;;;4.60;0.60;;;;;;;;;;4980395;28;20050;-66
2023/06/30 10:59:03;;;;;;;3.55;0.50;;;;;;;;;;4996589;28;20490;-66
2023/06/30 11:01:29;;;;;;;2.33;0.68;;;;;;;;;;4996451;28;20081;-67
2023/06/30 11:03:58;;;;;;;1.85;0.60;;;;;;;;;;4996706;28;20054;-66
2023/06/30 11:06:25;;;;;;;3.67;0.77;;;;;;;;;;5013220;28;20111;-65
2023/06/30 11:09:01;;;;;;;3.58;0.57;;;;;;;;;;4980226;28;20077;-66
2023/06/30 11:11:27;;;;;;;6.00;0.70;;;;;;;;;;5013704;28;20052;-67
2023/06/30 11:14:05;;;;;;;2.50;0.70;;;;;;;;;;5013560;28;20066;-66
2023/06/30 11:16:51;;;;;;;3.28;0.73;;;;;;;;;;5013873;28;20042;-66
2023/06/30 11:19:24;;;;;;;4.38;0.57;;;;;;;;;;4996102;28;20132;-67
2023/06/30 11:22:09;;;;;;;5.25;0.75;;;;;;;;;;4996333;28;20046;-66
2023/06/30 11:24:36;;;;;;;7.10;0.60;;;;;;;;;;5013650;28;20042;-67
2023/06/30 11:27:04;;;;;;;3.25;0.60;;;;;;;;;;4996860;28;20050;-67
2023/06/30 11:29:31;;;;;;;4.45;0.70;;;;;;;;;;5013519;28;20049;-67
2023/06/30 11:31:57;;;;;;;2.83;0.70;;;;;;;;;;5013550;28;20390;-66
2023/06/30 11:34:23;;;;;;;3.15;0.70;;;;;;;;;;5013499;28;20050;-67
2023/06/30 11:36:49;;;;;;;4.10;0.80;;;;;;;;;;4979994;28;20046;-67
2023/06/30 11:39:15;;;;;;;3.50;0.60;;;;;;;;;;5013407;28;20486;-67
2023/06/30 11:41:43;;;;;;;5.05;0.60;;;;;;;;;;5013728;28;20089;-66
2023/06/30 11:44:12;;;;;;;4.65;0.80;;;;;;;;;;5013863;28;20049;-66
2023/06/30 11:46:39;;;;;;;5.38;0.68;;;;;;;;;;5013244;28;20050;-67
2023/06/30 11:49:05;;;;;;;3.60;0.73;;;;;;;;;;5013281;28;20056;-67
2023/06/30 11:51:33;;;;;;;5.78;0.68;;;;;;;;;;4996058;28;20125;-66
2023/06/30 11:53:59;;;;;;;3.20;0.73;;;;;;;;;;5013331;28;20046;-66
2023/06/30 11:56:25;;;;;;;3.70;0.70;;;;;;;;;;5013815;28;20173;-66
2023/06/30 11:58:51;;;;;;;6.57;0.68;;;;;;;;;;5013369;28;20085;-67
2023/06/30 12:01:19;;;;;;;;;;;;;;;;;;5013409;28;20540;-68
2023/06/30 12:03:45;;;;;;;2.88;0.65;;;23.60;91.40;;;;;;4996024;28;19968;-67
2023/06/30 12:06:18;;;;;;;3.88;0.73;;;23.30;90.20;;;;;;5013368;28;20053;-67
2023/06/30 12:08:45;;;;;;;3.38;0.80;;;23.20;92.30;;;;;;5013307;28;20057;-67
2023/06/30 12:11:11;;;;;;;5.43;0.80;;;23.50;92.90;;;;;;4995776;28;20077;-68
2023/06/30 12:13:41;;;;;;;3.47;0.90;;;23.60;92.60;;;;;;5013127;28;20046;-68
2023/06/30 12:16:07;;;;;;;4.32;0.90;;;23.60;91.80;;;;;;5012993;28;20509;-66
2023/06/30 12:18:37;;;;;;;3.00;0.80;;;23.60;91.30;;;;;;4995953;28;20092;-66
2023/06/30 12:21:13;;;;;;;4.13;0.90;;;23.40;91.40;;;;;;5013168;28;20445;-67
2023/06/30 12:23:43;;;;;;;4.50;0.70;;;23.60;92.20;;;;;;5014033;28;20529;-67
2023/06/30 12:26:12;;;;;;;3.88;0.75;;;23.60;91.70;;;;;;5012657;28;20571;-67
2023/06/30 12:28:38;;;;;;;4.22;0.80;;;23.60;92.00;;;;;;5015023;28;20041;-68
2023/06/30 12:31:04;;;;;;;6.43;0.82;;;23.50;92.10;;;;;;4982872;28;20045;-65
2023/06/30 12:33:30;;;;;;;5.78;0.80;;;23.60;92.00;;;;;;5016491;28;20442;-66
2023/06/30 12:35:56;;;;;;;6.27;0.97;;;23.20;91.00;;;;;;5017118;28;20054;-68
2023/06/30 12:38:21;;;;;;;2.93;0.70;;;22.90;90.80;;;;;;4999556;28;20053;-71
2023/06/30 12:40:48;;;;;;;3.77;0.80;;;23.10;91.40;;;;;;4999075;28;20050;-67
2023/06/30 12:43:16;;;;;;;5.82;0.80;;;23.00;91.20;;;;;;5017211;28;20058;-66
2023/06/30 12:45:42;;;;;;;4.85;0.90;;;22.90;91.30;;;;;;5016199;28;20097;-67
2023/06/30 12:48:07;;;;;;;4.20;0.73;;;22.90;91.40;;;;;;5016510;28;20068;-66
2023/06/30 12:50:33;;;;;;;5.13;0.83;;;22.80;90.80;;;;;;4999294;28;20049;-67
2023/06/30 12:53:00;;;;;;;6.03;1.10;;;22.90;91.50;;;;;;5016228;28;20418;-67
2023/06/30 12:55:28;;;;;;;3.65;0.80;;;22.80;91.10;;;;;;5015718;28;20042;-68
2023/06/30 12:57:54;;;;;;;8.13;0.90;;;22.70;91.30;;;;;;4998791;28;20104;-68
2023/06/30 13:00:20;;;;;;;6.45;0.93;;;22.80;91.60;;;;;;5016191;28;20045;-67
2023/06/30 13:02:45;;;;;;;3.95;1.05;;;22.80;91.60;;;;;;5016082;28;20450;-68
2023/06/30 13:05:11;;;;;;;6.47;0.80;;;23.00;91.50;;;;;;5015987;28;20494;-66
2023/06/30 13:07:39;;;;;;;7.53;1.00;;;23.30;91.60;;;;;;4998581;28;20046;-68
2023/06/30 13:10:06;;;;;;;4.72;0.90;;;23.60;90.70;;;;;;5015847;28;20049;-67
2023/06/30 13:12:32;;;;;;;4.43;0.90;;;23.60;89.90;;;;;;4982316;28;20060;-67